PWSweather.com
Personal Weather Stations
Station Observations
COONRAPIDS
Minneapolis, MN 55433

Minneapolis, MN 55433

Lat: 45.187721, Lon: -93.36828

Elevation: 898

Station Type: Davis Vantage Pro 2

High Low Average
Temperature 21.3°F-5.9°C -1.5°F-18.6°C 11.3°F-11.5°C
Dew Point 16.1°F-8.8°C -5.9°F-21.1°C 6.7°F-14.1°C
Winds Calm Calm Calm Calm Calm SSWCalm SSW
Wind Gusts 1.2 mph1.9 kmh -- --
Humidity 84% 79% 82%
Pressure 30.32 in1026.8 mb 30.17 in1021.7 mb -
Precipitation 0.00 in0.0 mm - -
Hour Temp Dew Point Humidity Winds Wind Gusts Pressure Precip Precip Rate Daily Precip Total
12:00 AM 3.6°F-15.8°C -1.2°F-18.4°C 80% Calm Calm -- 30.21 in1023.0 mb - 0.00 in0.0 mm 0.00 in0.0 mm
12:10 AM 3.4°F-15.9°C -1.4°F-18.6°C 80% Calm Calm -- 30.21 in1023.0 mb - 0.00 in0.0 mm 0.00 in0.0 mm
12:20 AM 3.3°F-15.9°C -1.5°F-18.6°C 80% Calm Calm -- 30.21 in1023.0 mb - 0.00 in0.0 mm 0.00 in0.0 mm
12:30 AM 3.0°F-16.1°C -1.8°F-18.8°C 80% Calm Calm -- 30.21 in1023.0 mb - 0.00 in0.0 mm 0.00 in0.0 mm
12:40 AM 2.5°F-16.4°C -2.2°F-19.0°C 80% Calm Calm -- 30.21 in1023.0 mb - 0.00 in0.0 mm 0.00 in0.0 mm
12:50 AM 2.0°F-16.7°C -2.8°F-19.3°C 80% Calm Calm -- 30.21 in1023.0 mb - 0.00 in0.0 mm 0.00 in0.0 mm
01:00 AM 1.8°F-16.8°C -2.7°F-19.3°C 81% Calm Calm -- 30.21 in1023.0 mb - 0.00 in0.0 mm 0.00 in0.0 mm
01:10 AM 1.7°F-16.8°C -2.8°F-19.3°C 81% Calm Calm -- 30.22 in1023.4 mb - 0.00 in0.0 mm 0.00 in0.0 mm
01:20 AM 1.4°F-17.0°C -3.3°F-19.6°C 80% Calm Calm -- 30.22 in1023.4 mb - 0.00 in0.0 mm 0.00 in0.0 mm
01:30 AM 1.1°F-17.2°C -3.4°F-19.7°C 81% Calm Calm -- 30.22 in1023.4 mb - 0.00 in0.0 mm 0.00 in0.0 mm
01:40 AM 0.8°F-17.3°C -3.7°F-19.8°C 81% Calm Calm -- 30.22 in1023.4 mb - 0.00 in0.0 mm 0.00 in0.0 mm
01:50 AM 0.4°F-17.6°C -4.3°F-20.2°C 80% Calm Calm -- 30.22 in1023.4 mb - 0.00 in0.0 mm 0.00 in0.0 mm
02:00 AM 0.2°F-17.7°C -4.3°F-20.2°C 81% Calm Calm -- 30.22 in1023.4 mb - 0.00 in0.0 mm 0.00 in0.0 mm
02:10 AM 0.2°F-17.7°C -4.2°F-20.1°C 81% Calm Calm -- 30.22 in1023.4 mb - 0.00 in0.0 mm 0.00 in0.0 mm
02:20 AM 0.1°F-17.7°C -4.3°F-20.2°C 81% Calm Calm -- 30.21 in1023.0 mb - 0.00 in0.0 mm 0.00 in0.0 mm
02:30 AM -0.1°F-17.8°C -4.5°F-20.3°C 81% Calm Calm -- 30.21 in1023.0 mb - 0.00 in0.0 mm 0.00 in0.0 mm
02:40 AM -0.3°F-17.9°C -5.0°F-20.6°C 80% Calm Calm -- 30.21 in1023.0 mb - 0.00 in0.0 mm 0.00 in0.0 mm
02:50 AM -0.5°F-18.1°C -5.2°F-20.7°C 80% Calm Calm -- 30.21 in1023.0 mb - 0.00 in0.0 mm 0.00 in0.0 mm
03:00 AM -0.5°F-18.1°C -4.9°F-20.5°C 81% Calm Calm -- 30.21 in1023.0 mb - 0.00 in0.0 mm 0.00 in0.0 mm
03:10 AM -0.6°F-18.1°C -5.0°F-20.6°C 81% Calm Calm -- 30.21 in1023.0 mb - 0.00 in0.0 mm 0.00 in0.0 mm
03:20 AM -0.4°F-18.0°C -4.8°F-20.4°C 81% Calm Calm -- 30.21 in1023.0 mb - 0.00 in0.0 mm 0.00 in0.0 mm
03:30 AM -0.1°F-17.8°C -4.5°F-20.3°C 81% Calm Calm -- 30.21 in1023.0 mb - 0.00 in0.0 mm 0.00 in0.0 mm
03:40 AM -0.2°F-17.9°C -4.6°F-20.3°C 81% Calm Calm -- 30.21 in1023.0 mb - 0.00 in0.0 mm 0.00 in0.0 mm
03:50 AM -0.2°F-17.9°C -4.6°F-20.3°C 81% Calm Calm -- 30.21 in1023.0 mb - 0.00 in0.0 mm 0.00 in0.0 mm
04:00 AM -0.2°F-17.9°C -4.6°F-20.3°C 81% Calm Calm -- 30.21 in1023.0 mb - 0.00 in0.0 mm 0.00 in0.0 mm
04:10 AM -0.4°F-18.0°C -4.8°F-20.4°C 81% Calm Calm -- 30.20 in1022.7 mb - 0.00 in0.0 mm 0.00 in0.0 mm
04:20 AM -0.6°F-18.1°C -5.1°F-20.6°C 81% Calm Calm -- 30.20 in1022.7 mb - 0.00 in0.0 mm 0.00 in0.0 mm
04:30 AM -1.0°F-18.3°C -5.4°F-20.8°C 81% Calm Calm -- 30.21 in1023.0 mb - 0.00 in0.0 mm 0.00 in0.0 mm
04:40 AM -1.3°F-18.5°C -5.7°F-20.9°C 81% Calm Calm -- 30.21 in1023.0 mb - 0.00 in0.0 mm 0.00 in0.0 mm
04:50 AM -1.5°F-18.6°C -5.9°F-21.1°C 81% Calm Calm -- 30.21 in1023.0 mb - 0.00 in0.0 mm 0.00 in0.0 mm
05:00 AM -1.5°F-18.6°C -5.9°F-21.1°C 81% Calm Calm -- 30.21 in1023.0 mb - 0.00 in0.0 mm 0.00 in0.0 mm
05:10 AM -1.3°F-18.5°C -5.7°F-20.9°C 81% Calm Calm -- 30.21 in1023.0 mb - 0.00 in0.0 mm 0.00 in0.0 mm
05:20 AM -1.0°F-18.3°C -5.5°F-20.8°C 81% Calm Calm -- 30.21 in1023.0 mb - 0.00 in0.0 mm 0.00 in0.0 mm
05:30 AM -0.6°F-18.1°C -5.1°F-20.6°C 81% Calm Calm -- 30.21 in1023.0 mb - 0.00 in0.0 mm 0.00 in0.0 mm
05:40 AM -0.2°F-17.9°C -4.6°F-20.3°C 81% Calm Calm -- 30.22 in1023.4 mb - 0.00 in0.0 mm 0.00 in0.0 mm
05:50 AM 0.0°F-17.8°C -4.4°F-20.2°C 81% Calm Calm -- 30.21 in1023.0 mb - 0.00 in0.0 mm 0.00 in0.0 mm
06:00 AM 0.2°F-17.7°C -4.3°F-20.2°C 81% Calm Calm -- 30.22 in1023.4 mb - 0.00 in0.0 mm 0.00 in0.0 mm
06:10 AM 0.4°F-17.6°C -4.0°F-20.0°C 81% Calm Calm -- 30.22 in1023.4 mb - 0.00 in0.0 mm 0.00 in0.0 mm
06:20 AM 0.8°F-17.3°C -3.7°F-19.8°C 81% Calm Calm -- 30.22 in1023.4 mb - 0.00 in0.0 mm 0.00 in0.0 mm
06:30 AM 1.2°F-17.1°C -3.3°F-19.6°C 81% Calm Calm -- 30.21 in1023.0 mb - 0.00 in0.0 mm 0.00 in0.0 mm
06:40 AM 1.6°F-16.9°C -2.9°F-19.4°C 81% Calm Calm -- 30.22 in1023.4 mb - 0.00 in0.0 mm 0.00 in0.0 mm
06:50 AM 1.8°F-16.8°C -2.7°F-19.3°C 81% Calm Calm -- 30.22 in1023.4 mb - 0.00 in0.0 mm 0.00 in0.0 mm
07:00 AM 1.9°F-16.7°C -2.6°F-19.2°C 81% Calm Calm -- 30.22 in1023.4 mb - 0.00 in0.0 mm 0.00 in0.0 mm
07:10 AM 2.2°F-16.6°C -2.0°F-18.9°C 82% Calm Calm -- 30.22 in1023.4 mb - 0.00 in0.0 mm 0.00 in0.0 mm
07:20 AM 2.7°F-16.3°C -1.5°F-18.6°C 82% Calm Calm -- 30.23 in1023.7 mb - 0.00 in0.0 mm 0.00 in0.0 mm
07:30 AM 2.9°F-16.2°C -1.4°F-18.6°C 82% Calm Calm -- 30.22 in1023.4 mb - 0.00 in0.0 mm 0.00 in0.0 mm
07:40 AM 3.1°F-16.1°C -1.2°F-18.4°C 82% Calm Calm -- 30.22 in1023.4 mb - 0.00 in0.0 mm 0.00 in0.0 mm
07:50 AM 3.1°F-16.1°C -1.1°F-18.4°C 82% Calm Calm -- 30.23 in1023.7 mb - 0.00 in0.0 mm 0.00 in0.0 mm
08:00 AM 3.3°F-15.9°C -1.0°F-18.3°C 82% Calm Calm -- 30.23 in1023.7 mb - 0.00 in0.0 mm 0.00 in0.0 mm
08:10 AM 3.3°F-15.9°C -1.2°F-18.4°C 81% Calm Calm -- 30.23 in1023.7 mb - 0.00 in0.0 mm 0.00 in0.0 mm
08:20 AM 3.5°F-15.8°C -0.7°F-18.2°C 82% Calm Calm -- 30.21 in1023.0 mb - 0.00 in0.0 mm 0.00 in0.0 mm
08:30 AM 4.2°F-15.4°C -0.1°F-17.8°C 82% Calm Calm -- 30.21 in1023.0 mb - 0.00 in0.0 mm 0.00 in0.0 mm
08:40 AM 5.2°F-14.9°C 0.9°F-17.3°C 82% Calm Calm -- 30.21 in1023.0 mb - 0.00 in0.0 mm 0.00 in0.0 mm
08:50 AM 6.4°F-14.2°C 2.3°F-16.5°C 83% Calm Calm -- 30.21 in1023.0 mb - 0.00 in0.0 mm 0.00 in0.0 mm
09:00 AM 7.6°F-13.6°C 3.6°F-15.8°C 83% Calm Calm -- 30.21 in1023.0 mb - 0.00 in0.0 mm 0.00 in0.0 mm
09:10 AM 8.7°F-12.9°C 4.6°F-15.2°C 83% Calm Calm -- 30.22 in1023.4 mb - 0.00 in0.0 mm 0.00 in0.0 mm
09:20 AM 9.8°F-12.3°C 5.7°F-14.6°C 83% Calm Calm -- 30.22 in1023.4 mb - 0.00 in0.0 mm 0.00 in0.0 mm
09:30 AM 10.6°F-11.9°C 6.5°F-14.2°C 83% Calm Calm -- 30.22 in1023.4 mb - 0.00 in0.0 mm 0.00 in0.0 mm
09:40 AM 11.2°F-11.6°C 7.0°F-13.9°C 83% Calm Calm -- 30.22 in1023.4 mb - 0.00 in0.0 mm 0.00 in0.0 mm
09:50 AM 11.6°F-11.3°C 7.5°F-13.6°C 83% Calm Calm -- 30.22 in1023.4 mb - 0.00 in0.0 mm 0.00 in0.0 mm
10:00 AM 12.1°F-11.1°C 7.9°F-13.4°C 83% Calm Calm -- 30.22 in1023.4 mb - 0.00 in0.0 mm 0.00 in0.0 mm
10:10 AM 12.5°F-10.8°C 8.3°F-13.2°C 83% Calm Calm -- 30.23 in1023.7 mb - 0.00 in0.0 mm 0.00 in0.0 mm
10:20 AM 13.0°F-10.6°C 8.8°F-12.9°C 83% Calm Calm -- 30.24 in1024.0 mb - 0.00 in0.0 mm 0.00 in0.0 mm
10:30 AM 13.6°F-10.2°C 9.1°F-12.7°C 82% Calm Calm -- 30.24 in1024.0 mb - 0.00 in0.0 mm 0.00 in0.0 mm
10:40 AM 14.0°F-10.0°C 9.5°F-12.5°C 82% Calm Calm -- 30.24 in1024.0 mb - 0.00 in0.0 mm 0.00 in0.0 mm
10:50 AM 14.4°F-9.8°C 9.9°F-12.3°C 82% Calm Calm -- 30.25 in1024.4 mb - 0.00 in0.0 mm 0.00 in0.0 mm
11:00 AM 14.8°F-9.6°C 10.3°F-12.1°C 82% Calm Calm -- 30.25 in1024.4 mb - 0.00 in0.0 mm 0.00 in0.0 mm
11:10 AM 15.3°F-9.3°C 10.5°F-11.9°C 81% Calm Calm -- 30.25 in1024.4 mb - 0.00 in0.0 mm 0.00 in0.0 mm
11:20 AM 15.8°F-9.0°C 10.7°F-11.8°C 80% Calm Calm -- 30.24 in1024.0 mb - 0.00 in0.0 mm 0.00 in0.0 mm
11:30 AM 16.2°F-8.8°C 11.1°F-11.6°C 80% Calm Calm -- 30.25 in1024.4 mb - 0.00 in0.0 mm 0.00 in0.0 mm
11:40 AM 15.9°F-8.9°C 10.6°F-11.9°C 79% Calm Calm -- 30.25 in1024.4 mb - 0.00 in0.0 mm 0.00 in0.0 mm
11:50 AM 15.8°F-9.0°C 10.4°F-12.0°C 79% Calm Calm -- 30.25 in1024.4 mb - 0.00 in0.0 mm 0.00 in0.0 mm
12:00 PM 15.8°F-9.0°C 10.4°F-12.0°C 79% Calm Calm -- 30.25 in1024.4 mb - 0.00 in0.0 mm 0.00 in0.0 mm
12:10 PM 16.0°F-8.9°C 10.9°F-11.7°C 80% Calm Calm -- 30.25 in1024.4 mb - 0.00 in0.0 mm 0.00 in0.0 mm
12:20 PM 16.2°F-8.8°C 11.1°F-11.6°C 80% Calm Calm -- 30.25 in1024.4 mb - 0.00 in0.0 mm 0.00 in0.0 mm
12:30 PM 16.6°F-8.6°C 11.5°F-11.4°C 80% Calm Calm -- 30.25 in1024.4 mb - 0.00 in0.0 mm 0.00 in0.0 mm
12:40 PM 16.9°F-8.4°C 11.8°F-11.2°C 80% Calm Calm -- 30.25 in1024.4 mb - 0.00 in0.0 mm 0.00 in0.0 mm
12:50 PM 17.1°F-8.3°C 12.0°F-11.1°C 80% Calm Calm -- 30.25 in1024.4 mb - 0.00 in0.0 mm 0.00 in0.0 mm
01:00 PM 17.3°F-8.2°C 12.2°F-11.0°C 80% Calm Calm -- 30.25 in1024.4 mb - 0.00 in0.0 mm 0.00 in0.0 mm
01:10 PM 17.9°F-7.8°C 12.8°F-10.7°C 80% Calm Calm -- 30.24 in1024.0 mb - 0.00 in0.0 mm 0.00 in0.0 mm
01:20 PM 18.5°F-7.5°C 13.1°F-10.5°C 79% Calm Calm -- 30.24 in1024.0 mb - 0.00 in0.0 mm 0.00 in0.0 mm
01:30 PM 18.6°F-7.4°C 13.2°F-10.4°C 79% Calm Calm -- 30.23 in1023.7 mb - 0.00 in0.0 mm 0.00 in0.0 mm
01:40 PM 18.4°F-7.6°C 13.0°F-10.6°C 79% Calm Calm -- 30.23 in1023.7 mb - 0.00 in0.0 mm 0.00 in0.0 mm
01:50 PM 18.4°F-7.6°C 13.0°F-10.6°C 79% Calm Calm -- 30.22 in1023.4 mb - 0.00 in0.0 mm 0.00 in0.0 mm
02:00 PM 18.2°F-7.7°C 12.8°F-10.7°C 79% Calm Calm -- 30.22 in1023.4 mb - 0.00 in0.0 mm 0.00 in0.0 mm
02:10 PM 18.3°F-7.6°C 13.2°F-10.4°C 80% Calm Calm -- 30.21 in1023.0 mb - 0.00 in0.0 mm 0.00 in0.0 mm
02:20 PM 18.3°F-7.6°C 13.2°F-10.4°C 80% Calm Calm -- 30.20 in1022.7 mb - 0.00 in0.0 mm 0.00 in0.0 mm
02:30 PM 18.5°F-7.5°C 13.6°F-10.2°C 81% Calm Calm -- 30.19 in1022.4 mb - 0.00 in0.0 mm 0.00 in0.0 mm
02:40 PM 18.8°F-7.3°C 13.9°F-10.1°C 81% Calm Calm -- 30.18 in1022.0 mb - 0.00 in0.0 mm 0.00 in0.0 mm
02:50 PM 18.9°F-7.3°C 14.3°F-9.8°C 82% Calm Calm 1.2 mph1.9 kmh 30.18 in1022.0 mb - 0.00 in0.0 mm 0.00 in0.0 mm
03:00 PM 19.1°F-7.2°C 14.5°F-9.7°C 82% Calm Calm -- 30.17 in1021.7 mb - 0.00 in0.0 mm 0.00 in0.0 mm
03:10 PM 19.5°F-6.9°C 14.9°F-9.5°C 82% Calm Calm -- 30.17 in1021.7 mb - 0.00 in0.0 mm 0.00 in0.0 mm
03:20 PM 20.2°F-6.6°C 15.6°F-9.1°C 82% Calm Calm -- 30.18 in1022.0 mb - 0.00 in0.0 mm 0.00 in0.0 mm
03:30 PM 20.4°F-6.4°C 15.5°F-9.2°C 81% Calm Calm -- 30.19 in1022.4 mb - 0.00 in0.0 mm 0.00 in0.0 mm
03:40 PM 20.6°F-6.3°C 15.7°F-9.1°C 81% Calm Calm -- 30.18 in1022.0 mb - 0.00 in0.0 mm 0.00 in0.0 mm
03:50 PM 20.9°F-6.2°C 15.7°F-9.1°C 80% Calm Calm -- 30.18 in1022.0 mb - 0.00 in0.0 mm 0.00 in0.0 mm
04:00 PM 20.9°F-6.2°C 15.7°F-9.1°C 80% Calm Calm -- 30.19 in1022.4 mb - 0.00 in0.0 mm 0.00 in0.0 mm
04:10 PM 21.2°F-6.0°C 15.7°F-9.1°C 79% Calm Calm -- 30.19 in1022.4 mb - 0.00 in0.0 mm 0.00 in0.0 mm
04:20 PM 21.3°F-5.9°C 16.1°F-8.8°C 80% Calm Calm -- 30.19 in1022.4 mb - 0.00 in0.0 mm 0.00 in0.0 mm
04:30 PM 21.1°F-6.1°C 15.9°F-8.9°C 80% Calm Calm -- 30.19 in1022.4 mb - 0.00 in0.0 mm 0.00 in0.0 mm
04:40 PM 21.3°F-5.9°C 15.8°F-9.0°C 79% Calm Calm -- 30.19 in1022.4 mb - 0.00 in0.0 mm 0.00 in0.0 mm
04:50 PM 21.2°F-6.0°C 16.0°F-8.9°C 80% Calm Calm -- 30.19 in1022.4 mb - 0.00 in0.0 mm 0.00 in0.0 mm
05:00 PM 21.1°F-6.1°C 15.9°F-8.9°C 80% Calm Calm -- 30.20 in1022.7 mb - 0.00 in0.0 mm 0.00 in0.0 mm
05:10 PM 21.2°F-6.0°C 15.9°F-8.9°C 80% Calm Calm -- 30.20 in1022.7 mb - 0.00 in0.0 mm 0.00 in0.0 mm
05:20 PM 21.2°F-6.0°C 16.0°F-8.9°C 80% Calm Calm -- 30.20 in1022.7 mb - 0.00 in0.0 mm 0.00 in0.0 mm
05:30 PM 21.1°F-6.1°C 15.9°F-8.9°C 80% Calm Calm -- 30.20 in1022.7 mb - 0.00 in0.0 mm 0.00 in0.0 mm
05:40 PM 20.9°F-6.2°C 15.7°F-9.1°C 80% Calm Calm -- 30.20 in1022.7 mb - 0.00 in0.0 mm 0.00 in0.0 mm
05:50 PM 20.6°F-6.3°C 15.4°F-9.2°C 80% Calm Calm -- 30.20 in1022.7 mb - 0.00 in0.0 mm 0.00 in0.0 mm
06:00 PM 20.4°F-6.4°C 15.5°F-9.2°C 81% Calm Calm -- 30.21 in1023.0 mb - 0.00 in0.0 mm 0.00 in0.0 mm
06:10 PM 20.2°F-6.6°C 15.3°F-9.3°C 81% Calm Calm -- 30.21 in1023.0 mb - 0.00 in0.0 mm 0.00 in0.0 mm
06:20 PM 20.1°F-6.6°C 15.2°F-9.3°C 81% Calm Calm -- 30.22 in1023.4 mb - 0.00 in0.0 mm 0.00 in0.0 mm
06:30 PM 19.9°F-6.7°C 15.3°F-9.3°C 82% Calm Calm -- 30.23 in1023.7 mb - 0.00 in0.0 mm 0.00 in0.0 mm
06:40 PM 19.7°F-6.8°C 15.1°F-9.4°C 82% Calm Calm -- 30.23 in1023.7 mb - 0.00 in0.0 mm 0.00 in0.0 mm
06:50 PM 19.4°F-7.0°C 14.8°F-9.6°C 82% Calm Calm -- 30.23 in1023.7 mb - 0.00 in0.0 mm 0.00 in0.0 mm
07:00 PM 19.1°F-7.2°C 14.5°F-9.7°C 82% Calm Calm -- 30.23 in1023.7 mb - 0.00 in0.0 mm 0.00 in0.0 mm
07:10 PM 18.9°F-7.3°C 14.3°F-9.8°C 82% Calm Calm -- 30.23 in1023.7 mb - 0.00 in0.0 mm 0.00 in0.0 mm
07:20 PM 18.6°F-7.4°C 14.0°F-10.0°C 82% Calm Calm -- 30.23 in1023.7 mb - 0.00 in0.0 mm 0.00 in0.0 mm
07:30 PM 18.3°F-7.6°C 13.7°F-10.2°C 82% Calm Calm -- 30.24 in1024.0 mb - 0.00 in0.0 mm 0.00 in0.0 mm
07:40 PM 18.0°F-7.8°C 13.4°F-10.3°C 82% Calm Calm -- 30.24 in1024.0 mb - 0.00 in0.0 mm 0.00 in0.0 mm
07:50 PM 17.7°F-7.9°C 13.2°F-10.4°C 82% Calm Calm -- 30.25 in1024.4 mb - 0.00 in0.0 mm 0.00 in0.0 mm
08:00 PM 17.6°F-8.0°C 13.0°F-10.6°C 82% Calm Calm -- 30.25 in1024.4 mb - 0.00 in0.0 mm 0.00 in0.0 mm
08:10 PM 17.5°F-8.1°C 13.2°F-10.4°C 83% Calm Calm -- 30.25 in1024.4 mb - 0.00 in0.0 mm 0.00 in0.0 mm
08:20 PM 17.5°F-8.1°C 13.2°F-10.4°C 83% Calm Calm -- 30.26 in1024.7 mb - 0.00 in0.0 mm 0.00 in0.0 mm
08:30 PM 17.4°F-8.1°C 13.1°F-10.5°C 83% Calm Calm -- 30.27 in1025.1 mb - 0.00 in0.0 mm 0.00 in0.0 mm
08:40 PM 17.3°F-8.2°C 13.0°F-10.6°C 83% Calm Calm -- 30.27 in1025.1 mb - 0.00 in0.0 mm 0.00 in0.0 mm
08:50 PM 17.3°F-8.2°C 13.0°F-10.6°C 83% Calm Calm -- 30.27 in1025.1 mb - 0.00 in0.0 mm 0.00 in0.0 mm
09:00 PM 17.2°F-8.2°C 12.9°F-10.6°C 83% Calm Calm -- 30.27 in1025.1 mb - 0.00 in0.0 mm 0.00 in0.0 mm
09:10 PM 17.1°F-8.3°C 12.8°F-10.7°C 83% Calm Calm -- 30.27 in1025.1 mb - 0.00 in0.0 mm 0.00 in0.0 mm
09:20 PM 16.9°F-8.4°C 12.6°F-10.8°C 83% Calm Calm -- 30.26 in1024.7 mb - 0.00 in0.0 mm 0.00 in0.0 mm
09:30 PM 16.6°F-8.6°C 12.3°F-10.9°C 83% Calm Calm -- 30.27 in1025.1 mb - 0.00 in0.0 mm 0.00 in0.0 mm
09:40 PM 16.3°F-8.7°C 12.0°F-11.1°C 83% Calm Calm -- 30.27 in1025.1 mb - 0.00 in0.0 mm 0.00 in0.0 mm
09:50 PM 15.9°F-8.9°C 11.9°F-11.2°C 84% Calm Calm -- 30.27 in1025.1 mb - 0.00 in0.0 mm 0.00 in0.0 mm
10:00 PM 15.5°F-9.2°C 11.3°F-11.5°C 83% Calm Calm -- 30.28 in1025.4 mb - 0.00 in0.0 mm 0.00 in0.0 mm
10:10 PM 15.0°F-9.4°C 11.0°F-11.7°C 84% Calm Calm -- 30.28 in1025.4 mb - 0.00 in0.0 mm 0.00 in0.0 mm
10:20 PM 14.5°F-9.7°C 10.5°F-11.9°C 84% Calm Calm -- 30.28 in1025.4 mb - 0.00 in0.0 mm 0.00 in0.0 mm
10:30 PM 14.0°F-10.0°C 10.1°F-12.2°C 84% Calm Calm -- 30.28 in1025.4 mb - 0.00 in0.0 mm 0.00 in0.0 mm
10:40 PM 13.4°F-10.3°C 9.5°F-12.5°C 84% Calm Calm -- 30.29 in1025.7 mb - 0.00 in0.0 mm 0.00 in0.0 mm
10:50 PM 13.2°F-10.4°C 9.3°F-12.6°C 84% Calm Calm -- 30.29 in1025.7 mb - 0.00 in0.0 mm 0.00 in0.0 mm
11:00 PM 13.1°F-10.5°C 9.2°F-12.7°C 84% Calm Calm -- 30.30 in1026.1 mb - 0.00 in0.0 mm 0.00 in0.0 mm
11:10 PM 12.9°F-10.6°C 9.0°F-12.8°C 84% Calm Calm -- 30.29 in1025.7 mb - 0.00 in0.0 mm 0.00 in0.0 mm
11:20 PM 12.5°F-10.8°C 8.6°F-13.0°C 84% Calm Calm -- 30.30 in1026.1 mb - 0.00 in0.0 mm 0.00 in0.0 mm
11:30 PM 12.2°F-11.0°C 8.3°F-13.2°C 84% Calm Calm -- 30.30 in1026.1 mb - 0.00 in0.0 mm 0.00 in0.0 mm
11:40 PM 12.0°F-11.1°C 8.1°F-13.3°C 84% Calm Calm -- 30.30 in1026.1 mb - 0.00 in0.0 mm 0.00 in0.0 mm
11:50 PM 11.7°F-11.3°C 7.8°F-13.4°C 84% Calm Calm -- 30.31 in1026.4 mb - 0.00 in0.0 mm 0.00 in0.0 mm